sensor_id;sensor_type;location;lat;lon;timestamp;pressure;altitude;pressure_sealevel;temperature;humidity
61394;BME280;48555;50.952;-0.120;2023-05-20T00:01:55;102133.56;;;11.54;63.12
61394;BME280;48555;50.952;-0.120;2023-05-20T00:04:21;102136.09;;;11.56;62.97
61394;BME280;48555;50.952;-0.120;2023-05-20T00:06:46;102134.41;;;11.55;63.04
61394;BME280;48555;50.952;-0.120;2023-05-20T00:09:12;102142.25;;;11.55;63.02
61394;BME280;48555;50.952;-0.120;2023-05-20T00:11:37;102130.09;;;11.54;62.79
61394;BME280;48555;50.952;-0.120;2023-05-20T00:14:03;102131.00;;;11.53;62.82
61394;BME280;48555;50.952;-0.120;2023-05-20T00:16:28;102125.94;;;11.50;62.80
61394;BME280;48555;50.952;-0.120;2023-05-20T00:18:53;102124.41;;;11.46;62.90
61394;BME280;48555;50.952;-0.120;2023-05-20T00:21:20;102125.50;;;11.42;63.13
61394;BME280;48555;50.952;-0.120;2023-05-20T00:23:46;102134.28;;;11.41;62.93
61394;BME280;48555;50.952;-0.120;2023-05-20T00:26:11;102129.31;;;11.36;63.21
61394;BME280;48555;50.952;-0.120;2023-05-20T00:28:36;102121.50;;;11.34;63.00
61394;BME280;48555;50.952;-0.120;2023-05-20T00:31:02;102131.38;;;11.29;63.21
61394;BME280;48555;50.952;-0.120;2023-05-20T00:33:27;102125.41;;;11.27;63.66
61394;BME280;48555;50.952;-0.120;2023-05-20T00:35:52;102125.41;;;11.27;63.19
61394;BME280;48555;50.952;-0.120;2023-05-20T00:38:18;102125.41;;;11.27;63.53
61394;BME280;48555;50.952;-0.120;2023-05-20T00:40:43;102116.44;;;11.31;63.10
61394;BME280;48555;50.952;-0.120;2023-05-20T00:43:09;102118.81;;;11.36;62.82
61394;BME280;48555;50.952;-0.120;2023-05-20T00:45:36;102122.91;;;11.42;62.74
61394;BME280;48555;50.952;-0.120;2023-05-20T00:48:02;102125.19;;;11.48;62.56
61394;BME280;48555;50.952;-0.120;2023-05-20T00:50:28;102127.53;;;11.52;62.41
61394;BME280;48555;50.952;-0.120;2023-05-20T00:52:54;102121.41;;;11.53;62.20
61394;BME280;48555;50.952;-0.120;2023-05-20T00:55:20;102123.59;;;11.61;62.04
61394;BME280;48555;50.952;-0.120;2023-05-20T00:57:47;102128.81;;;11.61;61.54
61394;BME280;48555;50.952;-0.120;2023-05-20T01:00:13;102116.84;;;11.57;61.74
61394;BME280;48555;50.952;-0.120;2023-05-20T01:02:38;102118.84;;;11.52;62.00
61394;BME280;48555;50.952;-0.120;2023-05-20T01:05:04;102117.22;;;11.49;62.18
61394;BME280;48555;50.952;-0.120;2023-05-20T01:07:30;102113.94;;;11.46;62.90
61394;BME280;48555;50.952;-0.120;2023-05-20T01:09:56;102120.78;;;11.48;62.45
61394;BME280;48555;50.952;-0.120;2023-05-20T01:12:30;102104.31;;;11.46;62.59
61394;BME280;48555;50.952;-0.120;2023-05-20T01:15:00;102106.69;;;11.51;62.06
61394;BME280;48555;50.952;-0.120;2023-05-20T01:17:30;102103.91;;;11.54;62.11
61394;BME280;48555;50.952;-0.120;2023-05-20T01:19:58;102092.66;;;11.52;61.81
61394;BME280;48555;50.952;-0.120;2023-05-20T01:22:26;102090.97;;;11.51;61.92
61394;BME280;48555;50.952;-0.120;2023-05-20T01:24:51;102089.25;;;11.50;61.79
61394;BME280;48555;50.952;-0.120;2023-05-20T01:27:20;102096.28;;;11.49;62.29
61394;BME280;48555;50.952;-0.120;2023-05-20T01:29:47;102086.22;;;11.42;62.42
61394;BME280;48555;50.952;-0.120;2023-05-20T01:32:31;102088.56;;;11.30;63.75
61394;BME280;48555;50.952;-0.120;2023-05-20T01:34:59;102084.00;;;11.18;65.09
61394;BME280;48555;50.952;-0.120;2023-05-20T01:37:25;102078.09;;;10.97;66.80
61394;BME280;48555;50.952;-0.120;2023-05-20T01:39:52;102074.41;;;10.84;67.75
61394;BME280;48555;50.952;-0.120;2023-05-20T01:42:18;102069.88;;;10.87;67.47
61394;BME280;48555;50.952;-0.120;2023-05-20T01:44:43;102081.66;;;10.79;68.43
61394;BME280;48555;50.952;-0.120;2023-05-20T01:47:09;102084.06;;;10.66;69.16
61394;BME280;48555;50.952;-0.120;2023-05-20T01:49:34;102081.66;;;10.79;68.23
61394;BME280;48555;50.952;-0.120;2023-05-20T01:52:00;102076.19;;;10.83;67.97
61394;BME280;48555;50.952;-0.120;2023-05-20T01:54:25;102077.97;;;10.83;67.86
61394;BME280;48555;50.952;-0.120;2023-05-20T01:56:51;102072.03;;;10.79;67.71
61394;BME280;48555;50.952;-0.120;2023-05-20T01:59:16;102075.56;;;10.78;68.14
61394;BME280;48555;50.952;-0.120;2023-05-20T02:01:42;102071.66;;;10.52;70.38
61394;BME280;48555;50.952;-0.120;2023-05-20T02:04:07;102069.13;;;10.51;71.15
61394;BME280;48555;50.952;-0.120;2023-05-20T02:06:33;102068.59;;;10.61;70.35
61394;BME280;48555;50.952;-0.120;2023-05-20T02:08:58;102066.75;;;10.63;70.54
61394;BME280;48555;50.952;-0.120;2023-05-20T02:11:24;102068.38;;;10.66;70.47
61394;BME280;48555;50.952;-0.120;2023-05-20T02:13:49;102061.28;;;10.51;71.71
61394;BME280;48555;50.952;-0.120;2023-05-20T02:16:15;102060.97;;;10.57;71.22
61394;BME280;48555;50.952;-0.120;2023-05-20T02:18:41;102061.03;;;10.55;70.92
61394;BME280;48555;50.952;-0.120;2023-05-20T02:21:06;102073.22;;;10.56;71.41
61394;BME280;48555;50.952;-0.120;2023-05-20T02:23:32;102065.59;;;10.52;71.81
61394;BME280;48555;50.952;-0.120;2023-05-20T02:25:57;102069.03;;;10.52;71.82
61394;BME280;48555;50.952;-0.120;2023-05-20T02:28:23;102070.75;;;10.53;71.94
61394;BME280;48555;50.952;-0.120;2023-05-20T02:30:48;102068.22;;;10.52;72.18
61394;BME280;48555;50.952;-0.120;2023-05-20T02:33:17;102072.50;;;10.53;72.24
61394;BME280;48555;50.952;-0.120;2023-05-20T02:35:42;102059.91;;;10.43;72.59
61394;BME280;48555;50.952;-0.120;2023-05-20T02:38:09;102065.13;;;10.43;72.84
61394;BME280;48555;50.952;-0.120;2023-05-20T02:40:34;102060.97;;;10.39;73.39
61394;BME280;48555;50.952;-0.120;2023-05-20T02:42:59;102057.00;;;10.13;75.27
61394;BME280;48555;50.952;-0.120;2023-05-20T02:45:28;102056.19;;;9.94;77.12
61394;BME280;48555;50.952;-0.120;2023-05-20T02:47:53;102058.78;;;10.13;76.38
61394;BME280;48555;50.952;-0.120;2023-05-20T02:50:19;102054.59;;;9.91;77.39
61394;BME280;48555;50.952;-0.120;2023-05-20T02:52:44;102052.91;;;10.08;76.75
61394;BME280;48555;50.952;-0.120;2023-05-20T02:55:10;102040.63;;;10.10;76.78
61394;BME280;48555;50.952;-0.120;2023-05-20T02:57:36;102044.03;;;10.12;76.63
61394;BME280;48555;50.952;-0.120;2023-05-20T03:00:06;102037.38;;;10.05;77.22
61394;BME280;48555;50.952;-0.120;2023-05-20T03:02:32;102042.00;;;10.17;76.75
61394;BME280;48555;50.952;-0.120;2023-05-20T03:04:58;102039.25;;;10.20;76.53
61394;BME280;48555;50.952;-0.120;2023-05-20T03:07:24;102037.19;;;10.09;77.17
61394;BME280;48555;50.952;-0.120;2023-05-20T03:09:50;102042.00;;;10.17;76.45
61394;BME280;48555;50.952;-0.120;2023-05-20T03:12:16;102035.69;;;10.04;77.53
61394;BME280;48555;50.952;-0.120;2023-05-20T03:14:41;102039.06;;;10.06;77.27
61394;BME280;48555;50.952;-0.120;2023-05-20T03:17:08;102035.00;;;10.00;78.05
61394;BME280;48555;50.952;-0.120;2023-05-20T03:19:33;102023.69;;;9.99;78.36
61394;BME280;48555;50.952;-0.120;2023-05-20T03:21:59;102031.38;;;10.02;78.17
61394;BME280;48555;50.952;-0.120;2023-05-20T03:24:25;102027.88;;;10.04;78.49
61394;BME280;48555;50.952;-0.120;2023-05-20T03:26:51;102025.25;;;10.04;78.61
61394;BME280;48555;50.952;-0.120;2023-05-20T03:29:16;102023.63;;;10.01;78.51
61394;BME280;48555;50.952;-0.120;2023-05-20T03:31:42;102026.09;;;10.04;78.49
61394;BME280;48555;50.952;-0.120;2023-05-20T03:34:07;102024.00;;;9.93;79.11
61394;BME280;48555;50.952;-0.120;2023-05-20T03:36:33;102019.19;;;10.03;78.75
61394;BME280;48555;50.952;-0.120;2023-05-20T03:38:58;102022.41;;;10.08;77.89
61394;BME280;48555;50.952;-0.120;2023-05-20T03:41:23;102027.09;;;10.01;78.56
61394;BME280;48555;50.952;-0.120;2023-05-20T03:43:49;102034.91;;;10.01;78.45
61394;BME280;48555;50.952;-0.120;2023-05-20T03:46:14;102012.16;;;9.86;80.07
61394;BME280;48555;50.952;-0.120;2023-05-20T03:48:39;102026.84;;;9.70;81.53
61394;BME280;48555;50.952;-0.120;2023-05-20T03:51:05;102023.19;;;9.74;81.46
61394;BME280;48555;50.952;-0.120;2023-05-20T03:53:30;102020.34;;;9.78;81.80
61394;BME280;48555;50.952;-0.120;2023-05-20T03:55:56;102021.78;;;9.67;82.73
61394;BME280;48555;50.952;-0.120;2023-05-20T03:58:21;102022.75;;;9.83;82.30
61394;BME280;48555;50.952;-0.120;2023-05-20T04:00:47;102028.72;;;9.68;83.39
61394;BME280;48555;50.952;-0.120;2023-05-20T04:03:13;102027.84;;;9.67;84.02
61394;BME280;48555;50.952;-0.120;2023-05-20T04:05:38;102021.31;;;9.95;82.66
61394;BME280;48555;50.952;-0.120;2023-05-20T04:08:04;102011.25;;;10.05;82.12
61394;BME280;48555;50.952;-0.120;2023-05-20T04:10:30;102019.22;;;9.84;83.99
61394;BME280;48555;50.952;-0.120;2023-05-20T04:12:56;102021.94;;;10.00;83.45
61394;BME280;48555;50.952;-0.120;2023-05-20T04:15:22;102022.47;;;10.07;83.38
61394;BME280;48555;50.952;-0.120;2023-05-20T04:17:49;102017.88;;;10.12;83.69
61394;BME280;48555;50.952;-0.120;2023-05-20T04:20:17;102027.63;;;10.26;83.36
61394;BME280;48555;50.952;-0.120;2023-05-20T04:22:45;102020.81;;;10.40;82.59
61394;BME280;48555;50.952;-0.120;2023-05-20T04:25:11;102026.66;;;10.28;83.52
61394;BME280;48555;50.952;-0.120;2023-05-20T04:27:36;102025.88;;;10.26;84.36
61394;BME280;48555;50.952;-0.120;2023-05-20T04:30:03;102021.91;;;10.36;84.16
61394;BME280;48555;50.952;-0.120;2023-05-20T04:32:29;102030.75;;;10.51;83.34
61394;BME280;48555;50.952;-0.120;2023-05-20T04:34:54;102028.03;;;10.53;83.70
61394;BME280;48555;50.952;-0.120;2023-05-20T04:37:20;102026.22;;;10.55;83.86
61394;BME280;48555;50.952;-0.120;2023-05-20T04:39:46;102018.53;;;10.34;84.87
61394;BME280;48555;50.952;-0.120;2023-05-20T04:42:14;102018.31;;;10.39;85.08
61394;BME280;48555;50.952;-0.120;2023-05-20T04:44:41;102016.28;;;10.44;85.41
61394;BME280;48555;50.952;-0.120;2023-05-20T04:47:07;102018.88;;;10.44;85.52
61394;BME280;48555;50.952;-0.120;2023-05-20T04:49:32;102014.56;;;10.26;86.38
61394;BME280;48555;50.952;-0.120;2023-05-20T04:51:58;102013.13;;;10.37;86.66
61394;BME280;48555;50.952;-0.120;2023-05-20T04:54:24;102008.66;;;10.57;85.63
61394;BME280;48555;50.952;-0.120;2023-05-20T04:56:50;102011.25;;;10.74;84.39
61394;BME280;48555;50.952;-0.120;2023-05-20T04:59:16;102000.56;;;10.61;85.21
61394;BME280;48555;50.952;-0.120;2023-05-20T05:01:41;102005.31;;;10.71;85.47
61394;BME280;48555;50.952;-0.120;2023-05-20T05:04:07;102003.13;;;10.96;83.94
61394;BME280;48555;50.952;-0.120;2023-05-20T05:06:32;102005.25;;;11.05;83.66
61394;BME280;48555;50.952;-0.120;2023-05-20T05:08:57;102009.72;;;11.03;83.37
61394;BME280;48555;50.952;-0.120;2023-05-20T05:11:23;102018.78;;;11.13;82.94
61394;BME280;48555;50.952;-0.120;2023-05-20T05:13:48;102018.44;;;11.04;83.58
61394;BME280;48555;50.952;-0.120;2023-05-20T05:16:13;102017.66;;;11.18;83.03
61394;BME280;48555;50.952;-0.120;2023-05-20T05:18:39;102019.59;;;11.14;83.06
61394;BME280;48555;50.952;-0.120;2023-05-20T05:21:05;102006.78;;;11.09;82.90
61394;BME280;48555;50.952;-0.120;2023-05-20T05:23:31;102010.50;;;11.21;82.73
61394;BME280;48555;50.952;-0.120;2023-05-20T05:25:57;102018.78;;;11.13;83.03
61394;BME280;48555;50.952;-0.120;2023-05-20T05:28:23;102021.81;;;11.22;82.76
61394;BME280;48555;50.952;-0.120;2023-05-20T05:30:48;102019.97;;;11.24;82.87
61394;BME280;48555;50.952;-0.120;2023-05-20T05:33:14;102022.97;;;11.00;83.92
61394;BME280;48555;50.952;-0.120;2023-05-20T05:35:41;102024.53;;;10.87;84.40
61394;BME280;48555;50.952;-0.120;2023-05-20T05:38:07;102026.59;;;10.98;84.79
61394;BME280;48555;50.952;-0.120;2023-05-20T05:40:32;102028.38;;;10.97;84.35
61394;BME280;48555;50.952;-0.120;2023-05-20T05:42:57;102032.38;;;10.87;85.27
61394;BME280;48555;50.952;-0.120;2023-05-20T05:45:23;102035.41;;;10.79;86.01
61394;BME280;48555;50.952;-0.120;2023-05-20T05:47:48;102034.63;;;10.95;85.34
61394;BME280;48555;50.952;-0.120;2023-05-20T05:50:13;102027.63;;;11.11;84.11
61394;BME280;48555;50.952;-0.120;2023-05-20T05:52:39;102036.25;;;11.13;84.43
61394;BME280;48555;50.952;-0.120;2023-05-20T05:55:05;102027.84;;;11.24;84.11
61394;BME280;48555;50.952;-0.120;2023-05-20T05:57:31;102023.44;;;11.24;84.00
61394;BME280;48555;50.952;-0.120;2023-05-20T05:59:57;102028.25;;;11.32;84.02
61394;BME280;48555;50.952;-0.120;2023-05-20T06:02:22;102023.78;;;11.50;83.18
61394;BME280;48555;50.952;-0.120;2023-05-20T06:04:47;102024.13;;;11.59;82.66
61394;BME280;48555;50.952;-0.120;2023-05-20T06:07:13;102021.75;;;11.71;82.20
61394;BME280;48555;50.952;-0.120;2023-05-20T06:09:38;102022.50;;;11.41;83.11
61394;BME280;48555;50.952;-0.120;2023-05-20T06:12:04;102022.00;;;11.19;84.49
61394;BME280;48555;50.952;-0.120;2023-05-20T06:14:29;102022.38;;;11.44;84.32
61394;BME280;48555;50.952;-0.120;2023-05-20T06:16:56;102023.94;;;11.47;83.04
61394;BME280;48555;50.952;-0.120;2023-05-20T06:19:22;102023.28;;;11.27;84.18
61394;BME280;48555;50.952;-0.120;2023-05-20T06:21:47;102025.53;;;11.49;83.12
61394;BME280;48555;50.952;-0.120;2023-05-20T06:24:12;102026.13;;;11.70;82.36
61394;BME280;48555;50.952;-0.120;2023-05-20T06:26:38;102019.22;;;11.85;81.73
61394;BME280;48555;50.952;-0.120;2023-05-20T06:29:03;102020.28;;;11.97;81.22
61394;BME280;48555;50.952;-0.120;2023-05-20T06:31:29;102029.41;;;12.05;80.76
61394;BME280;48555;50.952;-0.120;2023-05-20T06:33:54;102020.53;;;12.08;80.34
61394;BME280;48555;50.952;-0.120;2023-05-20T06:36:20;102032.38;;;11.99;80.56
61394;BME280;48555;50.952;-0.120;2023-05-20T06:38:45;102019.38;;;11.98;80.79
61394;BME280;48555;50.952;-0.120;2023-05-20T06:41:11;102013.19;;;11.99;81.03
61394;BME280;48555;50.952;-0.120;2023-05-20T06:43:36;102020.94;;;11.86;81.60
61394;BME280;48555;50.952;-0.120;2023-05-20T06:46:01;102012.59;;;12.10;80.94
61394;BME280;48555;50.952;-0.120;2023-05-20T06:48:27;102019.38;;;12.28;80.31
61394;BME280;48555;50.952;-0.120;2023-05-20T06:50:52;102019.44;;;11.96;81.15
61394;BME280;48555;50.952;-0.120;2023-05-20T06:53:17;102006.44;;;11.95;80.74
61394;BME280;48555;50.952;-0.120;2023-05-20T06:55:43;102018.63;;;12.26;79.77
61394;BME280;48555;50.952;-0.120;2023-05-20T06:58:08;102007.69;;;12.34;79.25
61394;BME280;48555;50.952;-0.120;2023-05-20T07:00:33;102019.81;;;12.50;78.75
61394;BME280;48555;50.952;-0.120;2023-05-20T07:02:59;102014.56;;;12.50;79.21
61394;BME280;48555;50.952;-0.120;2023-05-20T07:05:24;102013.34;;;12.56;78.85
61394;BME280;48555;50.952;-0.120;2023-05-20T07:07:51;102012.81;;;12.65;78.36
61394;BME280;48555;50.952;-0.120;2023-05-20T07:10:17;102006.13;;;12.60;78.50
61394;BME280;48555;50.952;-0.120;2023-05-20T07:12:42;102014.50;;;12.95;77.43
61394;BME280;48555;50.952;-0.120;2023-05-20T07:15:08;101999.94;;;13.18;76.50
61394;BME280;48555;50.952;-0.120;2023-05-20T07:17:33;102005.41;;;13.15;76.09
61394;BME280;48555;50.952;-0.120;2023-05-20T07:19:59;102008.03;;;13.01;75.81
61394;BME280;48555;50.952;-0.120;2023-05-20T07:22:24;101999.78;;;13.07;76.36
61394;BME280;48555;50.952;-0.120;2023-05-20T07:24:50;102004.75;;;12.97;76.31
61394;BME280;48555;50.952;-0.120;2023-05-20T07:27:15;102010.00;;;12.97;76.39
61394;BME280;48555;50.952;-0.120;2023-05-20T07:29:40;102011.31;;;12.90;76.81
61394;BME280;48555;50.952;-0.120;2023-05-20T07:32:07;102006.03;;;13.18;76.10
61394;BME280;48555;50.952;-0.120;2023-05-20T07:34:33;102003.69;;;13.43;75.81
61394;BME280;48555;50.952;-0.120;2023-05-20T07:36:58;102002.56;;;13.74;74.39
61394;BME280;48555;50.952;-0.120;2023-05-20T07:39:25;102009.50;;;14.15;73.17
61394;BME280;48555;50.952;-0.120;2023-05-20T07:41:51;102001.22;;;14.34;71.36
61394;BME280;48555;50.952;-0.120;2023-05-20T07:44:16;101995.03;;;14.47;70.68
61394;BME280;48555;50.952;-0.120;2023-05-20T07:46:46;101990.69;;;14.46;69.58
61394;BME280;48555;50.952;-0.120;2023-05-20T07:49:12;101999.81;;;14.68;69.36
61394;BME280;48555;50.952;-0.120;2023-05-20T07:51:37;101993.69;;;14.54;69.07
61394;BME280;48555;50.952;-0.120;2023-05-20T07:54:02;101994.84;;;15.26;68.65
61394;BME280;48555;50.952;-0.120;2023-05-20T07:56:28;101987.69;;;15.52;66.84
61394;BME280;48555;50.952;-0.120;2023-05-20T07:58:55;101982.13;;;15.19;66.50
61394;BME280;48555;50.952;-0.120;2023-05-20T08:01:22;101983.56;;;15.84;65.32
61394;BME280;48555;50.952;-0.120;2023-05-20T08:03:48;101979.25;;;16.19;64.11
61394;BME280;48555;50.952;-0.120;2023-05-20T08:06:13;101981.56;;;16.34;63.42
61394;BME280;48555;50.952;-0.120;2023-05-20T08:08:39;101978.97;;;16.68;62.23
61394;BME280;48555;50.952;-0.120;2023-05-20T08:11:07;101971.78;;;17.15;61.13
61394;BME280;48555;50.952;-0.120;2023-05-20T08:13:34;101962.63;;;17.08;60.43
61394;BME280;48555;50.952;-0.120;2023-05-20T08:16:00;101968.84;;;17.30;59.68
61394;BME280;48555;50.952;-0.120;2023-05-20T08:18:25;101960.69;;;17.65;59.25
61394;BME280;48555;50.952;-0.120;2023-05-20T08:20:51;101959.38;;;17.59;58.45
61394;BME280;48555;50.952;-0.120;2023-05-20T08:23:17;101956.75;;;17.91;58.22
61394;BME280;48555;50.952;-0.120;2023-05-20T08:25:42;101963.97;;;17.57;57.54
61394;BME280;48555;50.952;-0.120;2023-05-20T08:28:10;101964.34;;;16.98;58.96
61394;BME280;48555;50.952;-0.120;2023-05-20T08:30:36;101956.19;;;16.90;59.65
61394;BME280;48555;50.952;-0.120;2023-05-20T08:33:02;101973.00;;;16.89;60.07
61394;BME280;48555;50.952;-0.120;2023-05-20T08:35:27;101973.47;;;17.48;59.03
61394;BME280;48555;50.952;-0.120;2023-05-20T08:37:52;101960.59;;;17.55;58.23
61394;BME280;48555;50.952;-0.120;2023-05-20T08:40:18;101967.50;;;17.79;57.80
61394;BME280;48555;50.952;-0.120;2023-05-20T08:42:46;101957.97;;;18.08;57.83
61394;BME280;48555;50.952;-0.120;2023-05-20T08:45:14;101964.25;;;18.07;56.77
61394;BME280;48555;50.952;-0.120;2023-05-20T08:47:41;101962.16;;;18.32;56.39
61394;BME280;48555;50.952;-0.120;2023-05-20T08:50:09;101964.56;;;18.66;55.00
61394;BME280;48555;50.952;-0.120;2023-05-20T08:52:37;101959.97;;;18.37;54.85
61394;BME280;48555;50.952;-0.120;2023-05-20T08:55:08;101954.59;;;18.48;54.32
61394;BME280;48555;50.952;-0.120;2023-05-20T08:57:36;101954.88;;;18.03;55.82
61394;BME280;48555;50.952;-0.120;2023-05-20T09:00:02;101965.38;;;18.14;56.02
61394;BME280;48555;50.952;-0.120;2023-05-20T09:02:36;101949.75;;;18.53;54.56
61394;BME280;48555;50.952;-0.120;2023-05-20T09:05:02;101948.78;;;18.64;53.69
61394;BME280;48555;50.952;-0.120;2023-05-20T09:07:29;101952.78;;;18.49;53.89
61394;BME280;48555;50.952;-0.120;2023-05-20T09:09:55;101940.88;;;18.12;55.01
61394;BME280;48555;50.952;-0.120;2023-05-20T09:12:21;101939.03;;;18.65;55.01
61394;BME280;48555;50.952;-0.120;2023-05-20T09:14:46;101936.38;;;18.65;54.84
61394;BME280;48555;50.952;-0.120;2023-05-20T09:17:12;101928.59;;;18.32;54.93
61394;BME280;48555;50.952;-0.120;2023-05-20T09:19:38;101936.69;;;18.10;55.44
61394;BME280;48555;50.952;-0.120;2023-05-20T09:22:03;101941.41;;;18.68;54.97
61394;BME280;48555;50.952;-0.120;2023-05-20T09:24:30;101928.16;;;19.08;53.14
61394;BME280;48555;50.952;-0.120;2023-05-20T09:26:55;101934.44;;;18.97;52.89
61394;BME280;48555;50.952;-0.120;2023-05-20T09:29:23;101926.50;;;19.17;52.20
61394;BME280;48555;50.952;-0.120;2023-05-20T09:31:49;101925.84;;;19.34;52.29
61394;BME280;48555;50.952;-0.120;2023-05-20T09:34:19;101929.63;;;18.81;52.92
61394;BME280;48555;50.952;-0.120;2023-05-20T09:36:49;101926.22;;;18.70;53.70
61394;BME280;48555;50.952;-0.120;2023-05-20T09:39:17;101921.47;;;18.64;53.37
61394;BME280;48555;50.952;-0.120;2023-05-20T09:42:20;101918.84;;;19.14;52.93
61394;BME280;48555;50.952;-0.120;2023-05-20T09:44:47;101916.63;;;19.19;52.50
61394;BME280;48555;50.952;-0.120;2023-05-20T09:47:13;101917.03;;;19.43;52.20
61394;BME280;48555;50.952;-0.120;2023-05-20T09:49:40;101923.75;;;19.57;51.93
61394;BME280;48555;50.952;-0.120;2023-05-20T09:52:07;101910.91;;;19.43;52.12
61394;BME280;48555;50.952;-0.120;2023-05-20T09:54:33;101910.69;;;18.86;53.28
61394;BME280;48555;50.952;-0.120;2023-05-20T09:57:00;101910.28;;;18.91;54.02
61394;BME280;48555;50.952;-0.120;2023-05-20T09:59:26;101899.75;;;19.29;53.05
61394;BME280;48555;50.952;-0.120;2023-05-20T10:01:53;101902.91;;;18.64;53.50
61394;BME280;48555;50.952;-0.120;2023-05-20T10:04:20;101902.47;;;18.58;54.04
61394;BME280;48555;50.952;-0.120;2023-05-20T10:13:35;101908.84;;;18.46;53.70
61394;BME280;48555;50.952;-0.120;2023-05-20T10:20:58;101904.34;;;19.57;51.12
61394;BME280;48555;50.952;-0.120;2023-05-20T10:23:29;101907.69;;;19.49;52.38
61394;BME280;48555;50.952;-0.120;2023-05-20T10:25:55;101896.50;;;19.16;52.50
61394;BME280;48555;50.952;-0.120;2023-05-20T10:28:34;101893.72;;;19.08;53.22
61394;BME280;48555;50.952;-0.120;2023-05-20T10:31:01;101891.09;;;19.66;52.68
61394;BME280;48555;50.952;-0.120;2023-05-20T10:33:28;101891.66;;;19.50;51.64
61394;BME280;48555;50.952;-0.120;2023-05-20T10:35:58;101887.88;;;19.53;51.11
61394;BME280;48555;50.952;-0.120;2023-05-20T10:38:24;101892.34;;;19.62;51.16
61394;BME280;48555;50.952;-0.120;2023-05-20T10:40:50;101891.22;;;19.84;51.04
61394;BME280;48555;50.952;-0.120;2023-05-20T10:43:24;101893.47;;;20.26;50.13
61394;BME280;48555;50.952;-0.120;2023-05-20T10:45:55;101891.09;;;20.23;49.33
61394;BME280;48555;50.952;-0.120;2023-05-20T10:48:29;101892.06;;;20.69;48.32
61394;BME280;48555;50.952;-0.120;2023-05-20T10:51:00;101869.47;;;20.55;47.36
61394;BME280;48555;50.952;-0.120;2023-05-20T10:53:28;101876.63;;;20.08;48.28
61394;BME280;48555;50.952;-0.120;2023-05-20T10:55:55;101871.13;;;20.19;47.60
61394;BME280;48555;50.952;-0.120;2023-05-20T10:58:22;101874.59;;;20.29;48.40
61394;BME280;48555;50.952;-0.120;2023-05-20T11:00:51;101861.22;;;20.49;47.93
61394;BME280;48555;50.952;-0.120;2023-05-20T11:03:16;101856.59;;;20.60;46.27
61394;BME280;48555;50.952;-0.120;2023-05-20T11:05:44;101849.66;;;20.68;46.50
61394;BME280;48555;50.952;-0.120;2023-05-20T11:08:11;101838.44;;;20.46;47.65
61394;BME280;48555;50.952;-0.120;2023-05-20T11:10:36;101847.81;;;20.13;47.58
61394;BME280;48555;50.952;-0.120;2023-05-20T11:13:02;101847.13;;;20.11;47.69
61394;BME280;48555;50.952;-0.120;2023-05-20T11:15:30;101838.38;;;20.28;47.59
61394;BME280;48555;50.952;-0.120;2023-05-20T11:17:58;101838.50;;;20.36;47.08
61394;BME280;48555;50.952;-0.120;2023-05-20T11:20:24;101823.44;;;20.27;46.64
61394;BME280;48555;50.952;-0.120;2023-05-20T11:22:51;101834.72;;;20.02;47.83
61394;BME280;48555;50.952;-0.120;2023-05-20T11:25:17;101856.09;;;20.37;45.97
61394;BME280;48555;50.952;-0.120;2023-05-20T11:27:43;101827.81;;;20.46;45.06
61394;BME280;48555;50.952;-0.120;2023-05-20T11:30:13;101823.09;;;20.40;44.82
61394;BME280;48555;50.952;-0.120;2023-05-20T11:32:43;101834.31;;;20.06;45.92
61394;BME280;48555;50.952;-0.120;2023-05-20T11:35:20;101811.13;;;20.26;45.50
61394;BME280;48555;50.952;-0.120;2023-05-20T11:37:53;101827.22;;;20.62;44.12
61394;BME280;48555;50.952;-0.120;2023-05-20T11:40:23;101815.78;;;20.97;44.14
61394;BME280;48555;50.952;-0.120;2023-05-20T11:42:48;101816.91;;;21.13;44.24
61394;BME280;48555;50.952;-0.120;2023-05-20T11:45:16;101809.84;;;20.85;43.76
61394;BME280;48555;50.952;-0.120;2023-05-20T11:47:41;101801.69;;;21.23;43.47
61394;BME280;48555;50.952;-0.120;2023-05-20T11:50:08;101809.97;;;21.38;43.21
61394;BME280;48555;50.952;-0.120;2023-05-20T11:52:33;101800.47;;;20.81;43.16
61394;BME280;48555;50.952;-0.120;2023-05-20T11:54:59;101799.25;;;20.76;43.34
61394;BME280;48555;50.952;-0.120;2023-05-20T11:57:24;101800.84;;;20.41;43.69
61394;BME280;48555;50.952;-0.120;2023-05-20T11:59:50;101800.72;;;20.42;45.01
61394;BME280;48555;50.952;-0.120;2023-05-20T12:02:15;101793.03;;;20.67;44.80
61394;BME280;48555;50.952;-0.120;2023-05-20T12:04:40;101790.16;;;20.60;44.58
61394;BME280;48555;50.952;-0.120;2023-05-20T12:07:06;101783.47;;;20.56;44.86
61394;BME280;48555;50.952;-0.120;2023-05-20T12:09:33;101784.44;;;20.28;44.16
61394;BME280;48555;50.952;-0.120;2023-05-20T12:11:59;101782.69;;;20.09;44.58
61394;BME280;48555;50.952;-0.120;2023-05-20T12:14:24;101792.13;;;20.03;44.82
61394;BME280;48555;50.952;-0.120;2023-05-20T12:16:50;101794.47;;;20.34;42.25
61394;BME280;48555;50.952;-0.120;2023-05-20T12:19:16;101796.75;;;20.47;40.94
61394;BME280;48555;50.952;-0.120;2023-05-20T12:21:42;101791.44;;;20.56;40.98
61394;BME280;48555;50.952;-0.120;2023-05-20T12:24:07;101789.53;;;20.84;41.13
61394;BME280;48555;50.952;-0.120;2023-05-20T12:26:33;101782.97;;;20.89;40.85
61394;BME280;48555;50.952;-0.120;2023-05-20T12:28:59;101789.09;;;21.07;40.72
61394;BME280;48555;50.952;-0.120;2023-05-20T12:31:25;101790.06;;;21.06;39.98
61394;BME280;48555;50.952;-0.120;2023-05-20T12:33:50;101778.91;;;21.02;39.79
61394;BME280;48555;50.952;-0.120;2023-05-20T12:36:16;101779.69;;;20.95;40.36
61394;BME280;48555;50.952;-0.120;2023-05-20T12:38:41;101775.13;;;20.87;38.30
61394;BME280;48555;50.952;-0.120;2023-05-20T12:41:07;101777.47;;;20.90;38.46
61394;BME280;48555;50.952;-0.120;2023-05-20T12:43:32;101779.59;;;20.86;38.64
61394;BME280;48555;50.952;-0.120;2023-05-20T12:45:59;101764.69;;;20.94;38.95
61394;BME280;48555;50.952;-0.120;2023-05-20T12:48:24;101761.91;;;20.95;39.25